Time;durP1;ratioP1;P1;durP2;ratioP2;P2;SDS_P1;SDS_P2;PMS_P1;PMS_P2;Temp;Humidity;BMP_temperature;BMP_pressure;BME280_temperature;BME280_humidity;BME280_pressure;Samples;Min_cycle;Max_cycle;Signal;HPM_P1;HPM_P2
2021/07/02 00:00:45;;;;;;;15.35;8.45;;;;;;;13.84;55.63;101437.56;5060472;28;20064;-67
2021/07/02 00:03:11;;;;;;;13.50;9.43;;;;;;;13.86;55.76;101443.59;5059288;28;20029;-67
2021/07/02 00:05:36;;;;;;;17.52;10.02;;;;;;;13.90;55.33;101437.28;5041351;28;20047;-68
2021/07/02 00:08:02;;;;;;;17.15;9.52;;;;;;;13.88;55.46;101427.78;5060718;28;20049;-68
2021/07/02 00:10:27;;;;;;;15.90;8.55;;;;;;;13.83;55.39;101435.00;5063227;28;20094;-68
2021/07/02 00:12:53;;;;;;;15.88;8.98;;;;;;;13.83;55.39;101429.72;5066623;28;20036;-69
2021/07/02 00:15:18;;;;;;;12.93;9.02;;;;;;;13.84;55.30;101420.94;5061614;28;20437;-68
2021/07/02 00:17:44;;;;;;;19.13;10.23;;;;;;;13.81;55.30;101415.81;5060387;28;20047;-70
2021/07/02 00:20:10;;;;;;;15.23;8.85;;;;;;;13.85;55.33;101420.00;5060415;28;20111;-69
2021/07/02 00:22:36;;;;;;;17.25;9.20;;;;;;;13.73;55.46;101419.63;5062459;28;20051;-69
2021/07/02 00:25:04;;;;;;;20.52;9.43;;;;;;;13.66;55.41;101415.59;5059876;28;20024;-69
2021/07/02 00:27:30;;;;;;;14.60;7.38;;;;;;;13.72;55.50;101424.97;5062001;28;20036;-69
2021/07/02 00:29:55;;;;;;;16.35;9.45;;;;;;;13.70;55.42;101421.56;5061775;28;20028;-69
2021/07/02 00:32:21;;;;;;;20.90;9.73;;;;;;;13.68;55.38;101423.41;5061115;28;20029;-69
2021/07/02 00:34:46;;;;;;;16.48;9.30;;;;;;;13.71;55.58;101429.34;5044008;28;20653;-69
2021/07/02 00:37:12;;;;;;;19.42;8.98;;;;;;;13.66;55.70;101428.72;5060808;28;20116;-68
2021/07/02 00:39:38;;;;;;;17.38;10.57;;;;;;;13.72;55.67;101422.34;5060748;28;20107;-69
2021/07/02 00:42:04;;;;;;;16.33;8.48;;;;;;;13.66;55.78;101428.72;5060782;28;20385;-69
2021/07/02 00:44:45;;;;;;;16.92;9.55;;;;;;;13.64;55.66;101429.72;5044300;28;20467;-69
2021/07/02 00:47:12;;;;;;;18.30;9.70;;;;;;;13.55;55.73;101432.72;5061728;28;20572;-68
2021/07/02 00:49:39;;;;;;;15.20;9.95;;;;;;;13.49;56.13;101424.16;5053243;28;20032;-69
2021/07/02 00:52:07;;;;;;;16.83;8.18;;;;;;;13.43;56.47;101427.09;5061200;28;20101;-68
2021/07/02 00:54:34;;;;;;;15.60;8.93;;;;;;;13.46;56.62;101421.69;5054895;28;20549;-68
2021/07/02 00:57:02;;;;;;;14.65;9.48;;;;;;;13.50;56.46;101433.75;5060213;28;20142;-68
2021/07/02 00:59:28;;;;;;;14.40;8.27;;;;;;;13.73;56.26;101440.66;5064811;28;20032;-68
2021/07/02 01:01:53;;;;;;;15.23;8.90;;;;;;;13.80;56.50;101433.34;5060906;28;20047;-68
2021/07/02 01:04:19;;;;;;;17.13;8.82;;;;;;;13.90;56.27;101436.44;5061661;28;20031;-68
2021/07/02 01:06:46;;;;;;;12.57;8.23;;;;;;;14.04;56.20;101433.19;5060186;28;20024;-68
2021/07/02 01:09:12;;;;;;;13.55;8.10;;;;;;;14.13;55.51;101423.09;5062198;28;20038;-68
2021/07/02 01:11:39;;;;;;;23.80;10.35;;;;;;;14.13;55.55;101432.75;5061661;28;20037;-68
2021/07/02 01:14:05;;;;;;;16.90;9.25;;;;;;;14.01;55.80;101414.91;5059392;28;20040;-68
2021/07/02 01:16:31;;;;;;;19.35;10.52;;;;;;;14.04;55.83;101420.88;5058625;28;20032;-67
2021/07/02 01:18:59;;;;;;;21.13;10.60;;;;;;;14.10;55.76;101417.97;5042552;28;20819;-68
2021/07/02 01:21:24;;;;;;;13.43;8.85;;;;;;;14.20;55.24;101428.06;5061978;28;20168;-68
2021/07/02 01:23:51;;;;;;;17.67;9.75;;;;;;;14.25;55.58;101416.41;5059296;28;20074;-69
2021/07/02 01:26:17;;;;;;;14.45;8.40;;;;;;;14.31;55.33;101421.38;5058093;28;20036;-68
2021/07/02 01:28:43;;;;;;;16.33;9.18;;;;;;;14.46;55.43;101427.72;5060151;28;20561;-68
2021/07/02 01:31:09;;;;;;;15.80;8.75;;;;;;;14.58;54.84;101421.00;5043639;28;20116;-69
2021/07/02 01:33:35;;;;;;;17.55;9.88;;;;;;;14.63;54.68;101426.03;5057703;28;20111;-68
2021/07/02 01:36:14;;;;;;;17.00;9.45;;;;;;;14.61;54.74;101434.00;5065065;28;20426;-69
2021/07/02 01:38:41;;;;;;;16.45;9.02;;;;;;;14.60;53.81;101421.78;5058603;28;20102;-68
2021/07/02 01:41:06;;;;;;;15.05;8.00;;;;;;;14.62;54.60;101422.56;5045866;28;21050;-68
2021/07/02 01:43:32;;;;;;;16.00;9.35;;;;;;;14.60;54.15;101418.31;5063902;28;20093;-67
2021/07/02 01:45:59;;;;;;;14.10;8.43;;;;;;;14.60;54.41;101416.53;5064589;28;20396;-67
2021/07/02 01:48:25;;;;;;;18.77;9.57;;;;;;;14.58;54.49;101417.53;5047531;28;20897;-67
2021/07/02 01:50:52;;;;;;;23.10;9.85;;;;;;;14.51;54.14;101416.97;5061985;28;20051;-68
2021/07/02 01:53:18;;;;;;;14.38;9.18;;;;;;;14.41;54.40;101415.69;5063218;28;20016;-69
2021/07/02 01:55:44;;;;;;;17.23;8.02;;;;;;;14.48;54.44;101419.78;5063660;28;20101;-70
2021/07/02 01:58:11;;;;;;;17.30;8.48;;;;;;;14.51;54.54;101412.56;5047437;28;20024;-68
2021/07/02 02:00:42;;;;;;;15.10;9.07;;;;;;;14.50;54.27;101416.13;5047953;28;20032;-68
2021/07/02 02:03:13;;;;;;;11.70;8.10;;;;;;;14.50;54.16;101421.41;5058147;28;20043;-69
2021/07/02 02:05:40;;;;;;;16.77;8.93;;;;;;;14.50;54.25;101421.41;5063646;28;20068;-68
2021/07/02 02:08:06;;;;;;;16.63;8.38;;;;;;;14.49;54.37;101410.94;5063122;28;20075;-69
2021/07/02 02:10:33;;;;;;;18.58;8.35;;;;;;;14.49;54.36;101414.41;5063427;28;20047;-70
2021/07/02 02:13:00;;;;;;;17.88;9.55;;;;;;;14.55;54.32;101402.75;5061975;28;20060;-68
2021/07/02 02:15:27;;;;;;;20.13;9.40;;;;;;;14.50;54.10;101402.97;5062808;28;20044;-67
2021/07/02 02:17:53;;;;;;;14.45;8.10;;;;;;;14.39;54.17;101402.63;5063784;28;20036;-67
2021/07/02 02:20:20;;;;;;;14.75;8.77;;;;;;;14.31;54.09;101402.13;5046623;28;20056;-69
2021/07/02 02:22:48;;;;;;;14.80;8.10;;;;;;;14.27;54.08;101398.78;5062911;28;20028;-68
2021/07/02 02:25:13;;;;;;;15.95;8.73;;;;;;;14.16;54.54;101408.94;5060975;28;20025;-69
2021/07/02 02:27:41;;;;;;;14.95;9.05;;;;;;;14.13;55.04;101401.22;5065602;28;20490;-67
2021/07/02 02:30:09;;;;;;;16.52;8.77;;;;;;;14.07;54.77;101401.47;5063685;28;20052;-70
2021/07/02 02:32:36;;;;;;;19.00;10.35;;;;;;;14.09;54.84;101397.84;5047129;28;20097;-69
2021/07/02 02:35:02;;;;;;;17.02;9.15;;;;;;;14.05;55.34;101400.69;5063025;28;20115;-68
2021/07/02 02:37:29;;;;;;;14.43;9.80;;;;;;;14.19;54.89;101408.81;5047056;28;20768;-67
2021/07/02 02:39:55;;;;;;;26.50;9.57;;;;;;;14.26;54.93;101412.84;5059524;28;20036;-68
2021/07/02 02:42:21;;;;;;;18.77;8.88;;;;;;;14.35;54.78;101403.69;5059335;28;20032;-67
2021/07/02 02:44:46;;;;;;;12.90;8.13;;;;;;;14.46;54.87;101403.22;5047860;28;20040;-68
2021/07/02 02:47:12;;;;;;;19.48;9.63;;;;;;;14.44;54.79;101405.91;5045730;28;20074;-68
2021/07/02 02:49:37;;;;;;;16.48;10.60;;;;;;;14.57;54.65;101414.06;5061257;28;20143;-68
2021/07/02 02:52:03;;;;;;;19.23;9.30;;;;;;;14.45;54.69;101404.13;5061522;28;20024;-70
2021/07/02 02:54:29;;;;;;;18.52;9.85;;;;;;;14.49;54.96;101408.31;5062247;28;20048;-68
2021/07/02 02:57:04;;;;;;;12.93;9.10;;;;;;;14.55;55.14;101402.75;5059474;28;20028;-68
2021/07/02 02:59:33;;;;;;;15.45;8.15;;;;;;;14.65;54.94;101404.00;5060892;28;20102;-67
2021/07/02 03:02:02;;;;;;;21.17;10.20;;;;;;;14.71;54.35;101398.44;5060362;28;20040;-69
2021/07/02 03:04:28;;;;;;;17.23;8.18;;;;;;;14.81;54.67;101403.25;5061114;28;20141;-68
2021/07/02 03:06:54;;;;;;;19.73;9.35;;;;;;;14.88;54.81;101397.63;5060391;28;20127;-67
2021/07/02 03:09:19;;;;;;;21.15;9.60;;;;;;;14.87;54.88;101392.41;5061169;28;20115;-68
2021/07/02 03:11:50;;;;;;;21.65;10.13;;;;;;;14.83;54.94;101406.66;5059674;28;20028;-67
2021/07/02 03:14:17;;;;;;;14.13;8.68;;;;;;;14.97;54.68;101409.47;5060585;28;20773;-67
2021/07/02 03:16:43;;;;;;;22.60;8.98;;;;;;;15.02;54.35;101411.88;5055572;28;20028;-67
2021/07/02 03:19:09;;;;;;;14.60;9.45;;;;;;;15.09;54.27;101414.09;5062920;28;20020;-68
2021/07/02 03:21:35;;;;;;;20.25;9.60;;;;;;;14.98;54.61;101412.00;5060258;28;20123;-68
2021/07/02 03:24:02;;;;;;;20.67;9.52;;;;;;;15.12;54.65;101413.94;5060625;28;20139;-67
2021/07/02 03:26:28;;;;;;;20.73;10.57;;;;;;;15.00;54.87;101411.94;5043668;28;20581;-68
2021/07/02 03:28:53;;;;;;;27.13;12.32;;;;;;;15.04;54.80;101413.50;5062570;28;20037;-68
2021/07/02 03:31:20;;;;;;;22.35;11.63;;;;;;;14.98;55.02;101414.63;5042436;28;20036;-68
2021/07/02 03:33:47;;;;;;;29.95;14.48;;;;;;;15.06;55.43;101421.28;5061110;28;20028;-68
2021/07/02 03:36:13;;;;;;;25.30;14.25;;;;;;;14.88;55.77;101420.44;5062134;28;20098;-68
2021/07/02 03:38:38;;;;;;;25.45;14.30;;;;;;;14.89;55.87;101422.16;5061015;28;20035;-67
2021/07/02 03:41:06;;;;;;;32.60;14.15;;;;;;;15.07;55.31;101423.84;5059778;28;20443;-67
2021/07/02 03:43:32;;;;;;;29.15;14.88;;;;;;;14.73;56.53;101428.16;5051357;28;20086;-68
2021/07/02 03:45:59;;;;;;;27.75;15.30;;;;;;;15.05;55.72;101427.50;5060453;28;20028;-67
2021/07/02 03:48:26;;;;;;;31.50;15.70;;;;;;;15.14;55.50;101433.13;5059847;28;20054;-69
2021/07/02 03:50:52;;;;;;;35.50;16.15;;;;;;;15.08;55.62;101433.47;5061300;28;20040;-68
2021/07/02 03:53:18;;;;;;;31.35;14.88;;;;;;;15.22;55.28;101431.97;5059191;28;20076;-68
2021/07/02 03:55:44;;;;;;;30.52;15.07;;;;;;;15.32;55.04;101435.81;5060519;28;20541;-67
2021/07/02 03:58:09;;;;;;;28.02;15.25;;;;;;;15.20;55.32;101439.06;5059382;28;20031;-66
2021/07/02 04:00:35;;;;;;;29.60;13.95;;;;;;;15.13;55.40;101447.25;5061837;28;20036;-68
2021/07/02 04:03:00;;;;;;;39.78;15.38;;;;;;;14.87;55.97;101453.78;5059349;28;20066;-68
2021/07/02 04:05:26;;;;;;;31.42;15.25;;;;;;;14.96;56.33;101449.88;5060560;28;20051;-67
2021/07/02 04:07:51;;;;;;;34.47;14.52;;;;;;;15.12;55.52;101453.44;5061610;28;20124;-67
2021/07/02 04:10:17;;;;;;;32.72;14.68;;;;;;;14.93;56.07;101450.03;5060999;28;20383;-68
2021/07/02 04:12:42;;;;;;;29.42;12.88;;;;;;;15.23;55.71;101459.97;5062889;28;20090;-67
2021/07/02 04:15:09;;;;;;;26.23;13.52;;;;;;;15.31;55.41;101457.81;5061533;28;20111;-69
2021/07/02 04:17:38;;;;;;;30.35;14.80;;;;;;;15.34;55.00;101461.13;5062011;28;20486;-68
2021/07/02 04:20:09;;;;;;;29.00;14.48;;;;;;;15.45;54.89;101463.22;5061621;28;20194;-67
2021/07/02 04:22:35;;;;;;;30.85;13.10;;;;;;;15.50;54.78;101466.47;5061498;28;21117;-69
2021/07/02 04:25:01;;;;;;;29.50;13.98;;;;;;;15.41;54.62;101472.22;5060348;28;20036;-68
2021/07/02 04:27:26;;;;;;;29.38;13.73;;;;;;;15.36;54.78;101468.97;5042795;28;20117;-68
2021/07/02 04:29:52;;;;;;;27.40;14.07;;;;;;;15.31;54.63;101478.88;5057976;28;20139;-67
2021/07/02 04:32:17;;;;;;;28.80;13.85;;;;;;;15.40;54.70;101477.56;5060381;28;20410;-69
2021/07/02 04:34:43;;;;;;;25.58;13.32;;;;;;;15.49;54.08;101480.56;5061705;28;20143;-68
2021/07/02 04:37:09;;;;;;;31.13;14.27;;;;;;;15.46;54.72;101478.13;5060200;28;20036;-68
2021/07/02 04:39:38;;;;;;;26.85;12.75;;;;;;;15.64;54.34;101472.81;5060306;28;20033;-69
2021/07/02 04:42:05;;;;;;;27.17;14.03;;;;;;;15.47;54.02;101479.81;5061796;28;20123;-69
2021/07/02 04:44:30;;;;;;;34.13;14.25;;;;;;;15.81;54.12;101483.31;5051947;28;20363;-68
2021/07/02 04:46:56;;;;;;;26.92;12.82;;;;;;;15.92;53.41;101483.59;5044030;28;20036;-68
2021/07/02 04:49:21;;;;;;;30.92;13.73;;;;;;;15.72;53.99;101481.16;5060093;28;20064;-68
2021/07/02 04:51:48;;;;;;;32.20;15.20;;;;;;;15.83;53.52;101489.38;5060022;28;20547;-69
2021/07/02 04:54:13;;;;;;;32.70;13.63;;;;;;;15.47;54.02;101492.97;5059609;28;20029;-67
2021/07/02 04:56:39;;;;;;;31.98;13.18;;;;;;;15.67;53.97;101488.47;5044491;28;20028;-68
2021/07/02 04:59:04;;;;;;;33.80;14.25;;;;;;;15.40;54.29;101488.97;5061881;28;20047;-68
2021/07/02 05:01:30;;;;;;;28.50;14.73;;;;;;;15.64;54.01;101488.59;5058707;28;20064;-67
2021/07/02 05:03:55;;;;;;;29.83;13.85;;;;;;;15.61;53.92;101492.25;5043355;28;20132;-68
2021/07/02 05:06:21;;;;;;;26.13;12.68;;;;;;;15.79;53.74;101488.69;5062161;28;20695;-68
2021/07/02 05:08:47;;;;;;;25.63;14.43;;;;;;;15.81;53.40;101496.50;5065716;28;20024;-69
2021/07/02 05:11:12;;;;;;;28.63;12.80;;;;;;;15.52;54.20;101496.22;5066659;28;20551;-68
2021/07/02 05:13:38;;;;;;;26.75;13.02;;;;;;;15.56;53.95;101503.03;5065906;28;20028;-68
2021/07/02 05:16:05;;;;;;;34.22;13.63;;;;;;;15.47;54.03;101510.56;5061355;28;20040;-68
2021/07/02 05:18:31;;;;;;;28.08;13.25;;;;;;;15.67;53.82;101514.81;5065664;28;20044;-68
2021/07/02 05:20:57;;;;;;;27.63;13.27;;;;;;;15.44;54.12;101508.06;5047663;28;20054;-68
2021/07/02 05:23:22;;;;;;;31.13;12.30;;;;;;;15.65;53.64;101511.41;5065465;28;20032;-68
2021/07/02 05:25:48;;;;;;;26.33;12.93;;;;;;;15.84;53.64;101506.03;5065153;28;20036;-68
2021/07/02 05:28:13;;;;;;;23.52;13.02;;;;;;;15.55;53.45;101511.00;5065471;28;20044;-69
2021/07/02 05:30:39;;;;;;;21.88;12.13;;;;;;;15.74;53.70;101510.94;5065512;28;20036;-68
2021/07/02 05:33:04;;;;;;;27.15;12.18;;;;;;;15.83;53.45;101504.34;5063157;28;20036;-69
2021/07/02 05:35:30;;;;;;;23.60;11.82;;;;;;;15.64;53.39;101502.66;5067049;28;20518;-69
2021/07/02 05:37:55;;;;;;;27.95;12.77;;;;;;;15.36;54.16;101509.31;5064930;28;20044;-69
2021/07/02 05:40:21;;;;;;;25.00;13.18;;;;;;;15.36;53.77;101508.47;5066534;28;20039;-67
2021/07/02 05:42:46;;;;;;;29.35;11.65;;;;;;;15.56;53.45;101515.38;5064344;28;20207;-66
2021/07/02 05:45:13;;;;;;;24.42;12.63;;;;;;;15.23;53.81;101516.13;5064268;28;20033;-68
2021/07/02 05:47:47;;;;;;;29.58;12.50;;;;;;;15.51;53.63;101515.59;5064397;28;20024;-67
2021/07/02 05:50:13;;;;;;;29.42;13.07;;;;;;;15.42;53.32;101512.59;5045282;28;20127;-67
2021/07/02 05:52:39;;;;;;;26.63;11.60;;;;;;;15.75;52.55;101517.91;5047028;28;20107;-67
2021/07/02 05:55:05;;;;;;;25.23;12.45;;;;;;;15.80;52.61;101522.00;5063077;28;20419;-67
2021/07/02 05:57:30;;;;;;;23.42;11.52;;;;;;;15.88;52.44;101524.22;5061253;28;20738;-67
2021/07/02 05:59:56;;;;;;;23.13;12.68;;;;;;;16.07;52.27;101523.31;5061632;28;20036;-67
2021/07/02 06:02:21;;;;;;;25.20;12.80;;;;;;;16.15;51.83;101531.66;5063296;28;20062;-67
2021/07/02 06:04:47;;;;;;;26.25;13.73;;;;;;;16.15;51.48;101524.63;5062488;28;20032;-68
2021/07/02 06:07:12;;;;;;;28.55;13.45;;;;;;;16.35;50.88;101525.31;5064395;28;20114;-68
2021/07/02 06:09:38;;;;;;;22.83;12.32;;;;;;;16.62;50.54;101526.44;5064605;28;20856;-67
2021/07/02 06:12:04;;;;;;;25.38;11.82;;;;;;;16.91;50.08;101523.13;5062736;28;20111;-67
2021/07/02 06:14:31;;;;;;;23.48;12.95;;;;;;;16.69;49.93;101515.53;5062837;28;20036;-67
2021/07/02 06:16:57;;;;;;;28.05;12.95;;;;;;;16.76;49.62;101527.50;5062718;28;20059;-68
2021/07/02 06:19:23;;;;;;;20.20;11.40;;;;;;;17.33;49.47;101533.00;5061673;28;20063;-67
2021/07/02 06:21:48;;;;;;;25.85;12.63;;;;;;;17.63;47.54;101529.56;5062321;28;20785;-67
2021/07/02 06:24:14;;;;;;;29.05;11.50;;;;;;;16.87;49.28;101534.78;5044686;28;20036;-66
2021/07/02 06:26:40;;;;;;;29.73;12.95;;;;;;;17.13;48.52;101520.97;5037253;28;20474;-67
2021/07/02 06:29:05;;;;;;;24.15;10.68;;;;;;;17.36;47.67;101510.88;5063555;28;20167;-66
2021/07/02 06:31:30;;;;;;;24.00;11.38;;;;;;;17.49;48.05;101521.59;5063575;28;20035;-67
2021/07/02 06:33:56;;;;;;;22.55;12.15;;;;;;;17.00;48.42;101514.69;5062010;28;20424;-66
2021/07/02 06:36:22;;;;;;;23.98;11.35;;;;;;;17.57;47.78;101508.78;5045191;28;20044;-67
2021/07/02 06:38:47;;;;;;;23.13;11.30;;;;;;;17.37;48.14;101512.56;5060595;28;20378;-67
2021/07/02 06:41:13;;;;;;;21.02;11.52;;;;;;;18.33;46.55;101512.97;5048350;28;20036;-68
2021/07/02 06:43:38;;;;;;;24.33;10.77;;;;;;;18.94;45.62;101513.50;5062748;28;20094;-68
2021/07/02 06:46:03;;;;;;;22.73;9.93;;;;;;;19.17;43.06;101522.59;5061678;28;20040;-67
2021/07/02 06:48:29;;;;;;;18.50;9.75;;;;;;;19.00;43.98;101513.97;5063083;28;20186;-68
2021/07/02 06:50:57;;;;;;;17.73;10.30;;;;;;;18.74;44.07;101512.97;5061646;28;20484;-68
2021/07/02 06:53:24;;;;;;;18.42;9.90;;;;;;;18.98;43.24;101507.91;5061602;28;20048;-67
2021/07/02 06:55:51;;;;;;;16.00;9.40;;;;;;;19.83;40.74;101508.38;5044903;28;20137;-67
2021/07/02 06:58:17;;;;;;;15.25;8.00;;;;;;;19.98;41.62;101506.47;5060750;28;20036;-68
2021/07/02 07:00:43;;;;;;;20.33;9.77;;;;;;;21.79;37.20;101508.25;5064667;28;20170;-67
2021/07/02 07:03:08;;;;;;;16.63;9.60;;;;;;;21.60;37.38;101508.84;5062225;28;20056;-67
2021/07/02 07:05:35;;;;;;;17.38;9.05;;;;;;;20.63;38.64;101518.66;5064276;28;20043;-67
2021/07/02 07:08:02;;;;;;;19.15;9.35;;;;;;;19.40;41.73;101516.59;5063786;28;20061;-67
2021/07/02 07:10:30;;;;;;;17.58;9.55;;;;;;;19.84;42.08;101520.69;5046446;28;20892;-68
2021/07/02 07:12:57;;;;;;;14.35;8.63;;;;;;;19.90;40.58;101522.06;5063812;28;20510;-67
2021/07/02 07:15:24;;;;;;;16.38;8.65;;;;;;;19.54;41.61;101528.91;5063246;28;20642;-67
2021/07/02 07:17:49;;;;;;;18.45;9.57;;;;;;;18.92;42.58;101524.22;5063317;28;20040;-68
2021/07/02 07:20:15;;;;;;;13.07;7.93;;;;;;;19.18;42.39;101525.13;5064639;28;20062;-67
2021/07/02 07:22:40;;;;;;;15.05;8.48;;;;;;;19.78;41.70;101512.31;5064247;28;20045;-69
2021/07/02 07:25:06;;;;;;;12.90;8.05;;;;;;;19.25;41.55;101515.81;5065258;28;20043;-67
2021/07/02 07:27:33;;;;;;;17.67;7.95;;;;;;;20.70;39.17;101513.75;5064740;28;20036;-68
2021/07/02 07:29:58;;;;;;;13.70;7.35;;;;;;;20.51;37.96;101515.09;5059077;28;20039;-67
2021/07/02 07:32:24;;;;;;;11.00;6.45;;;;;;;21.58;35.56;101505.44;5062919;28;20028;-67
2021/07/02 07:34:56;;;;;;;11.05;6.00;;;;;;;22.05;35.98;101514.19;5063953;28;20048;-68
2021/07/02 07:37:22;;;;;;;10.70;5.18;;;;;;;23.14;32.52;101507.19;5062649;28;20041;-68
2021/07/02 07:39:49;;;;;;;13.43;5.30;;;;;;;24.92;31.13;101501.47;5060835;28;20028;-68
2021/07/02 07:42:16;;;;;;;7.55;5.20;;;;;;;27.48;26.95;101506.13;5063698;28;20032;-67
2021/07/02 07:44:42;;;;;;;9.52;5.00;;;;;;;28.50;24.91;101500.88;5066597;28;20041;-67
2021/07/02 07:47:08;;;;;;;9.45;4.97;;;;;;;30.36;22.30;101505.31;5060721;28;20541;-68
2021/07/02 07:49:34;;;;;;;6.88;4.80;;;;;;;28.72;25.05;101499.44;5060571;28;20073;-68
2021/07/02 07:52:11;;;;;;;6.30;3.83;;;;;;;27.68;25.78;101511.31;5062766;28;20040;-68
2021/07/02 07:54:39;;;;;;;5.63;4.00;;;;;;;31.21;23.43;101509.75;5055423;28;20115;-69
2021/07/02 07:57:05;;;;;;;8.52;4.10;;;;;;;28.03;25.10;101512.13;5059106;28;20047;-68
2021/07/02 07:59:32;;;;;;;7.90;4.07;;;;;;;26.21;28.16;101519.66;5060979;28;20060;-68
2021/07/02 08:01:58;;;;;;;6.82;3.40;;;;;;;28.33;25.35;101519.66;5040602;28;20085;-69
2021/07/02 08:04:23;;;;;;;7.88;3.92;;;;;;;28.86;23.79;101522.13;5056213;28;20241;-68
2021/07/02 08:06:52;;;;;;;9.52;5.45;;;;;;;26.75;26.51;101524.28;5056820;28;20111;-69
2021/07/02 08:09:18;;;;;;;8.68;4.32;;;;;;;23.48;31.06;101536.38;5056712;28;20054;-68
2021/07/02 08:11:44;;;;;;;7.72;4.38;;;;;;;21.58;36.01;101537.38;5059518;28;20048;-69
2021/07/02 08:14:10;;;;;;;10.02;5.05;;;;;;;20.44;36.92;101540.41;5058029;28;20024;-70
2021/07/02 08:16:37;;;;;;;5.97;3.97;;;;;;;20.51;37.35;101530.19;5061972;28;20028;-68
2021/07/02 08:19:04;;;;;;;6.85;3.55;;;;;;;20.60;36.49;101541.97;5060270;28;20051;-68
2021/07/02 08:21:30;;;;;;;7.88;3.85;;;;;;;20.38;37.57;101535.53;5062011;28;20195;-68
2021/07/02 08:23:55;;;;;;;6.57;3.53;;;;;;;20.97;36.86;101539.28;5057166;28;20032;-69
2021/07/02 08:26:21;;;;;;;8.95;3.97;;;;;;;21.38;35.34;101532.66;5060561;28;20024;-70
2021/07/02 08:31:32;;;;;;;7.15;3.53;;;;;;;25.47;29.34;101532.00;5062135;28;20036;-69
2021/07/02 08:33:58;;;;;;;9.68;4.38;;;;;;;25.33;29.26;101532.47;5058582;28;20041;-69
2021/07/02 08:36:24;;;;;;;6.65;4.40;;;;;;;26.54;26.45;101522.72;5060933;28;20110;-69
2021/07/02 08:38:50;;;;;;;8.50;4.00;;;;;;;28.44;24.26;101517.69;5060771;28;20797;-70
2021/07/02 08:41:16;;;;;;;6.93;3.85;;;;;;;26.20;26.93;101523.34;5064066;28;20063;-70
2021/07/02 08:43:45;;;;;;;7.85;4.55;;;;;;;23.26;30.66;101526.66;5058396;28;20111;-68
2021/07/02 08:46:16;;;;;;;7.18;3.90;;;;;;;23.52;31.23;101527.13;5061530;28;20443;-70
2021/07/02 08:48:45;;;;;;;9.48;4.05;;;;;;;25.65;28.29;101539.31;5059519;28;20087;-69
2021/07/02 08:51:11;;;;;;;7.47;4.38;;;;;;;25.71;28.05;101530.72;5061893;28;20078;-69
2021/07/02 08:53:37;;;;;;;6.90;3.70;;;;;;;27.87;24.70;101532.53;5059855;28;20063;-69
2021/07/02 08:56:03;;;;;;;11.55;4.07;;;;;;;28.40;25.10;101527.91;5060575;28;20059;-68
2021/07/02 08:58:31;;;;;;;10.65;3.92;;;;;;;27.51;25.62;101531.81;5060975;28;20040;-68
2021/07/02 09:00:57;;;;;;;4.60;2.83;;;;;;;25.99;26.98;101533.41;5058889;28;20032;-68
2021/07/02 09:03:27;;;;;;;4.22;2.65;;;;;;;26.70;25.85;101533.63;5060878;28;20056;-69
2021/07/02 09:05:53;;;;;;;8.93;3.13;;;;;;;28.52;24.44;101528.44;5060900;28;20036;-69
2021/07/02 09:08:19;;;;;;;4.65;2.80;;;;;;;27.12;24.83;101524.16;5065717;28;20048;-68
2021/07/02 09:10:46;;;;;;;6.90;3.42;;;;;;;27.58;24.54;101532.03;5067798;28;20037;-72
2021/07/02 09:13:13;;;;;;;4.85;3.17;;;;;;;26.63;25.51;101531.72;5062133;28;20056;-69
2021/07/02 09:15:45;;;;;;;8.50;3.55;;;;;;;25.01;28.23;101530.06;5049826;28;20131;-68
2021/07/02 09:18:12;;;;;;;4.53;2.97;;;;;;;23.64;29.69;101534.09;5051421;28;20115;-68
2021/07/02 09:20:41;;;;;;;7.32;3.40;;;;;;;23.14;30.25;101534.72;5062222;28;20037;-69
2021/07/02 09:23:09;;;;;;;7.25;3.35;;;;;;;25.68;28.78;101544.38;5058601;28;20756;-68
2021/07/02 09:25:49;;;;;;;5.43;2.67;;;;;;;25.18;27.62;101541.91;5055213;28;20044;-68
2021/07/02 09:28:17;;;;;;;7.97;3.13;;;;;;;24.08;28.79;101545.44;5055754;28;20510;-69
2021/07/02 09:30:44;;;;;;;6.95;3.10;;;;;;;23.78;30.06;101547.06;5041455;28;20036;-69
2021/07/02 09:33:16;;;;;;;5.28;2.47;;;;;;;23.55;30.93;101546.41;5057414;28;20032;-68
2021/07/02 09:35:49;;;;;;;8.32;3.60;;;;;;;24.32;30.21;101552.25;5056177;28;20118;-69
2021/07/02 09:38:17;;;;;;;8.38;3.13;;;;;;;24.59;29.65;101557.88;5040577;28;20119;-68
2021/07/02 09:40:43;;;;;;;5.10;2.92;;;;;;;26.09;27.04;101558.38;5059612;28;20608;-69
2021/07/02 09:43:17;;;;;;;4.32;2.67;;;;;;;26.71;25.38;101555.91;5040648;28;20036;-68
2021/07/02 09:45:47;;;;;;;5.13;2.58;;;;;;;26.38;26.30;101555.53;5060260;28;20047;-68
2021/07/02 09:48:15;;;;;;;4.03;2.95;;;;;;;26.98;26.06;101557.69;5059675;28;20032;-69
2021/07/02 09:50:43;;;;;;;4.22;2.13;;;;;;;25.74;27.31;101562.53;5059588;28;20072;-70
2021/07/02 09:53:10;;;;;;;4.30;2.70;;;;;;;25.26;28.33;101558.06;5057787;28;20028;-69
2021/07/02 09:55:43;;;;;;;6.35;2.75;;;;;;;24.92;27.52;101555.78;5064682;28;20150;-68
2021/07/02 09:58:20;;;;;;;7.82;2.58;;;;;;;24.73;28.73;101559.28;5059106;28;20045;-68
2021/07/02 10:00:47;;;;;;;6.00;3.38;;;;;;;23.21;31.03;101572.38;5055666;28;20087;-68
2021/07/02 10:03:16;;;;;;;7.45;2.90;;;;;;;23.16;30.89;101563.88;5043093;28;20655;-67
2021/07/02 10:06:18;;;;;;;8.10;2.78;;;;;;;24.53;30.34;101566.44;5046346;28;20032;-68
2021/07/02 10:08:43;;;;;;;5.25;3.40;;;;;;;23.58;31.07;101575.47;5058924;28;20721;-69
2021/07/02 10:11:11;;;;;;;9.43;3.50;;;;;;;23.42;31.31;101580.41;5052816;28;20176;-68
2021/07/02 10:13:39;;;;;;;5.85;3.55;;;;;;;21.86;33.39;101580.47;5056017;28;20545;-68
2021/07/02 10:16:07;;;;;;;4.63;2.83;;;;;;;21.93;33.88;101587.84;5059354;28;20101;-70
2021/07/02 10:18:36;;;;;;;6.80;3.85;;;;;;;22.24;33.59;101589.97;5059852;28;20037;-67
2021/07/02 10:21:03;;;;;;;7.32;3.90;;;;;;;23.49;31.39;101581.59;5060329;28;20443;-68
2021/07/02 10:23:39;;;;;;;6.22;3.30;;;;;;;25.03;30.80;101578.91;5061447;28;20028;-68
2021/07/02 10:26:08;;;;;;;6.78;3.90;;;;;;;24.22;29.62;101585.13;5059935;28;20040;-68
2021/07/02 10:28:36;;;;;;;6.97;2.90;;;;;;;24.44;28.85;101572.59;5078091;28;20078;-68
2021/07/02 10:31:04;;;;;;;7.38;3.30;;;;;;;25.34;28.09;101571.59;5041947;28;20474;-69
2021/07/02 10:33:30;;;;;;;7.72;2.50;;;;;;;25.81;28.53;101574.34;5056717;28;20080;-69
2021/07/02 10:36:05;;;;;;;6.00;2.92;;;;;;;24.54;28.49;101572.59;5057491;28;20039;-68
2021/07/02 10:38:41;;;;;;;4.22;2.97;;;;;;;24.26;28.34;101577.72;5048722;28;20056;-68
2021/07/02 10:41:16;;;;;;;6.25;2.55;;;;;;;24.77;27.87;101581.22;5059827;28;20036;-68
2021/07/02 10:44:10;;;;;;;4.85;3.13;;;;;;;23.98;29.70;101585.44;5059545;28;20037;-68
2021/07/02 10:46:38;;;;;;;5.55;2.60;;;;;;;24.23;28.96;101581.47;5058403;28;20402;-68
2021/07/02 10:49:05;;;;;;;6.97;3.38;;;;;;;23.59;30.09;101589.69;5060431;28;20047;-68
2021/07/02 10:51:30;;;;;;;7.53;2.85;;;;;;;23.54;29.14;101583.88;5059222;28;20042;-68
2021/07/02 10:54:11;;;;;;;5.75;2.78;;;;;;;23.81;29.91;101586.88;5058070;28;20032;-67
2021/07/02 10:56:38;;;;;;;8.15;3.17;;;;;;;25.15;28.15;101584.97;5059104;28;20089;-67
2021/07/02 10:59:04;;;;;;;4.28;2.97;;;;;;;25.70;27.31;101595.09;5039277;28;20044;-70
2021/07/02 11:01:31;;;;;;;6.82;4.40;;;;;;;24.34;27.90;101593.03;5057175;28;20040;-68
2021/07/02 11:04:35;;;;;;;6.93;3.72;;;;;;;24.39;27.84;101598.81;5058792;28;20032;-68
2021/07/02 11:07:26;;;;;;;5.22;2.40;;;;;;;23.24;28.78;101593.44;5059425;28;20044;-68
2021/07/02 11:09:52;;;;;;;6.00;2.88;;;;;;;23.34;29.37;101605.06;5058691;28;20043;-67
2021/07/02 11:12:22;;;;;;;4.43;3.40;;;;;;;24.38;27.71;101597.13;5058578;28;20469;-68
2021/07/02 11:14:53;;;;;;;7.05;3.15;;;;;;;24.33;28.82;101602.88;5067420;28;20422;-68
2021/07/02 11:17:27;;;;;;;8.73;2.80;;;;;;;24.36;29.42;101601.78;5061195;28;20040;-70
2021/07/02 11:20:08;;;;;;;5.68;3.30;;;;;;;24.24;29.02;101609.03;5057557;28;20040;-68